Kearney, Arkansas
Current Conditions -  °F | °C
As of 10:53 AM on Saturday 20 Dec 2014 (Local Time) from KLIT Reporting Station
Overcast Overcast  
Wind Chill: 44°   Ceiling: 5000
Heat Index: 44°   Visibility: 7mi
Dew Point: 35°   Wind: 0mph
Humidity: 71%   Direction: NA
Pressure: 30.29"   Gusts: NA
Location:  34.4462°N, 92.1621°W
Report Text: KLIT 201653Z 00000KT 7SM OVC050 07/02 A3029 RMK AO2 SLP262 T00670017
Loading
Personal Weather Stations






























Interactive Weather Map New forecast layout! Learn more

10-Day Weather Forecast

Advertisements
Track Severe Weather on mobile